sensor_id;sensor_type;location;lat;lon;timestamp;P1;durP1;ratioP1;P2;durP2;ratioP2
5811;SDS011;2932;52.400;9.558;2022-10-23T00:03:40;5.63;;;2.70;;
5811;SDS011;2932;52.400;9.558;2022-10-23T00:06:06;3.80;;;1.90;;
5811;SDS011;2932;52.400;9.558;2022-10-23T00:08:32;3.90;;;2.00;;
5811;SDS011;2932;52.400;9.558;2022-10-23T00:10:57;3.67;;;2.10;;
5811;SDS011;2932;52.400;9.558;2022-10-23T00:13:23;7.47;;;3.03;;
5811;SDS011;2932;52.400;9.558;2022-10-23T00:15:48;2.97;;;2.00;;
5811;SDS011;2932;52.400;9.558;2022-10-23T00:18:13;10.53;;;2.30;;
5811;SDS011;2932;52.400;9.558;2022-10-23T00:20:39;3.57;;;2.60;;
5811;SDS011;2932;52.400;9.558;2022-10-23T00:23:04;2.27;;;1.50;;
5811;SDS011;2932;52.400;9.558;2022-10-23T00:25:29;4.03;;;1.60;;
5811;SDS011;2932;52.400;9.558;2022-10-23T00:27:56;3.20;;;2.00;;
5811;SDS011;2932;52.400;9.558;2022-10-23T00:30:21;5.87;;;2.30;;
5811;SDS011;2932;52.400;9.558;2022-10-23T00:32:47;3.97;;;2.00;;
5811;SDS011;2932;52.400;9.558;2022-10-23T00:35:12;8.93;;;2.40;;
5811;SDS011;2932;52.400;9.558;2022-10-23T00:37:38;6.70;;;1.97;;
5811;SDS011;2932;52.400;9.558;2022-10-23T00:40:03;4.73;;;2.10;;
5811;SDS011;2932;52.400;9.558;2022-10-23T00:42:29;6.67;;;1.93;;
5811;SDS011;2932;52.400;9.558;2022-10-23T00:47:20;4.17;;;2.20;;
5811;SDS011;2932;52.400;9.558;2022-10-23T00:49:45;5.10;;;1.73;;
5811;SDS011;2932;52.400;9.558;2022-10-23T00:52:11;5.27;;;2.07;;
5811;SDS011;2932;52.400;9.558;2022-10-23T00:54:38;5.17;;;2.00;;
5811;SDS011;2932;52.400;9.558;2022-10-23T00:57:06;6.90;;;3.10;;
5811;SDS011;2932;52.400;9.558;2022-10-23T00:59:35;5.60;;;2.20;;
5811;SDS011;2932;52.400;9.558;2022-10-23T01:02:01;3.00;;;1.70;;
5811;SDS011;2932;52.400;9.558;2022-10-23T01:04:27;2.60;;;1.50;;
5811;SDS011;2932;52.400;9.558;2022-10-23T01:09:22;6.20;;;2.23;;
5811;SDS011;2932;52.400;9.558;2022-10-23T01:11:57;7.13;;;2.27;;
5811;SDS011;2932;52.400;9.558;2022-10-23T01:14:42;2.43;;;2.00;;
5811;SDS011;2932;52.400;9.558;2022-10-23T01:17:17;3.53;;;2.20;;
5811;SDS011;2932;52.400;9.558;2022-10-23T01:28:33;4.30;;;2.10;;
5811;SDS011;2932;52.400;9.558;2022-10-23T01:31:07;4.23;;;2.00;;
5811;SDS011;2932;52.400;9.558;2022-10-23T01:33:39;3.30;;;2.00;;
5811;SDS011;2932;52.400;9.558;2022-10-23T01:36:10;3.73;;;2.17;;
5811;SDS011;2932;52.400;9.558;2022-10-23T01:38:40;5.20;;;2.30;;
5811;SDS011;2932;52.400;9.558;2022-10-23T01:43:59;5.60;;;2.07;;
5811;SDS011;2932;52.400;9.558;2022-10-23T01:46:30;4.27;;;2.00;;
5811;SDS011;2932;52.400;9.558;2022-10-23T01:48:59;5.47;;;2.27;;
5811;SDS011;2932;52.400;9.558;2022-10-23T01:51:27;6.13;;;2.30;;
5811;SDS011;2932;52.400;9.558;2022-10-23T01:53:55;3.30;;;2.37;;
5811;SDS011;2932;52.400;9.558;2022-10-23T01:56:28;7.20;;;2.40;;
5811;SDS011;2932;52.400;9.558;2022-10-23T01:59:03;7.70;;;2.67;;
5811;SDS011;2932;52.400;9.558;2022-10-23T02:01:33;4.83;;;2.17;;
5811;SDS011;2932;52.400;9.558;2022-10-23T02:04:01;6.97;;;2.27;;
5811;SDS011;2932;52.400;9.558;2022-10-23T02:06:30;7.17;;;2.10;;
5811;SDS011;2932;52.400;9.558;2022-10-23T02:08:56;4.23;;;2.37;;
5811;SDS011;2932;52.400;9.558;2022-10-23T02:11:22;3.70;;;2.30;;
5811;SDS011;2932;52.400;9.558;2022-10-23T02:22:11;3.73;;;2.03;;
5811;SDS011;2932;52.400;9.558;2022-10-23T02:27:34;6.13;;;2.23;;
5811;SDS011;2932;52.400;9.558;2022-10-23T02:30:05;5.47;;;2.13;;
5811;SDS011;2932;52.400;9.558;2022-10-23T02:32:32;7.30;;;3.03;;
5811;SDS011;2932;52.400;9.558;2022-10-23T02:35:00;11.00;;;2.20;;
5811;SDS011;2932;52.400;9.558;2022-10-23T02:37:25;5.03;;;2.33;;
5811;SDS011;2932;52.400;9.558;2022-10-23T02:39:51;3.53;;;2.20;;
5811;SDS011;2932;52.400;9.558;2022-10-23T02:45:28;4.13;;;2.13;;
5811;SDS011;2932;52.400;9.558;2022-10-23T02:48:11;3.93;;;2.27;;
5811;SDS011;2932;52.400;9.558;2022-10-23T02:56:22;3.63;;;2.57;;
5811;SDS011;2932;52.400;9.558;2022-10-23T02:59:05;4.70;;;2.67;;
5811;SDS011;2932;52.400;9.558;2022-10-23T03:04:38;7.67;;;2.63;;
5811;SDS011;2932;52.400;9.558;2022-10-23T03:07:09;6.13;;;2.60;;
5811;SDS011;2932;52.400;9.558;2022-10-23T03:09:36;4.77;;;2.70;;
5811;SDS011;2932;52.400;9.558;2022-10-23T03:12:01;10.27;;;3.07;;
5811;SDS011;2932;52.400;9.558;2022-10-23T03:14:27;5.70;;;2.77;;
5811;SDS011;2932;52.400;9.558;2022-10-23T03:16:52;6.27;;;2.60;;
5811;SDS011;2932;52.400;9.558;2022-10-23T03:19:17;4.83;;;3.23;;
5811;SDS011;2932;52.400;9.558;2022-10-23T03:21:43;5.60;;;2.50;;
5811;SDS011;2932;52.400;9.558;2022-10-23T03:24:08;5.17;;;2.47;;
5811;SDS011;2932;52.400;9.558;2022-10-23T03:26:33;5.07;;;2.40;;
5811;SDS011;2932;52.400;9.558;2022-10-23T03:28:59;3.70;;;2.50;;
5811;SDS011;2932;52.400;9.558;2022-10-23T03:31:24;6.47;;;2.67;;
5811;SDS011;2932;52.400;9.558;2022-10-23T03:33:49;3.43;;;2.47;;
5811;SDS011;2932;52.400;9.558;2022-10-23T03:36:15;6.13;;;2.50;;
5811;SDS011;2932;52.400;9.558;2022-10-23T03:38:40;4.57;;;2.50;;
5811;SDS011;2932;52.400;9.558;2022-10-23T03:41:05;5.83;;;2.40;;
5811;SDS011;2932;52.400;9.558;2022-10-23T03:43:31;2.57;;;2.20;;
5811;SDS011;2932;52.400;9.558;2022-10-23T03:45:56;3.23;;;2.40;;
5811;SDS011;2932;52.400;9.558;2022-10-23T03:48:21;5.33;;;2.80;;
5811;SDS011;2932;52.400;9.558;2022-10-23T03:50:48;5.80;;;2.73;;
5811;SDS011;2932;52.400;9.558;2022-10-23T03:53:14;4.20;;;3.33;;
5811;SDS011;2932;52.400;9.558;2022-10-23T03:55:39;5.50;;;2.93;;
5811;SDS011;2932;52.400;9.558;2022-10-23T03:58:05;6.20;;;2.37;;
5811;SDS011;2932;52.400;9.558;2022-10-23T04:00:31;7.40;;;3.80;;
5811;SDS011;2932;52.400;9.558;2022-10-23T04:02:56;8.70;;;3.13;;
5811;SDS011;2932;52.400;9.558;2022-10-23T04:05:21;5.83;;;2.90;;
5811;SDS011;2932;52.400;9.558;2022-10-23T04:07:47;5.57;;;2.77;;
5811;SDS011;2932;52.400;9.558;2022-10-23T04:10:12;7.77;;;2.30;;
5811;SDS011;2932;52.400;9.558;2022-10-23T04:12:37;5.63;;;2.80;;
5811;SDS011;2932;52.400;9.558;2022-10-23T04:15:03;9.50;;;4.40;;
5811;SDS011;2932;52.400;9.558;2022-10-23T04:17:28;5.20;;;3.33;;
5811;SDS011;2932;52.400;9.558;2022-10-23T04:19:54;7.33;;;3.60;;
5811;SDS011;2932;52.400;9.558;2022-10-23T04:22:19;6.20;;;2.97;;
5811;SDS011;2932;52.400;9.558;2022-10-23T04:24:45;6.00;;;2.60;;
5811;SDS011;2932;52.400;9.558;2022-10-23T04:27:12;5.83;;;2.57;;
5811;SDS011;2932;52.400;9.558;2022-10-23T04:29:37;5.57;;;3.00;;
5811;SDS011;2932;52.400;9.558;2022-10-23T04:32:03;10.90;;;2.57;;
5811;SDS011;2932;52.400;9.558;2022-10-23T04:34:28;3.90;;;3.00;;
5811;SDS011;2932;52.400;9.558;2022-10-23T04:36:53;5.23;;;2.70;;
5811;SDS011;2932;52.400;9.558;2022-10-23T04:39:19;6.60;;;2.57;;
5811;SDS011;2932;52.400;9.558;2022-10-23T04:41:44;8.00;;;2.90;;
5811;SDS011;2932;52.400;9.558;2022-10-23T04:44:10;4.07;;;2.67;;
5811;SDS011;2932;52.400;9.558;2022-10-23T04:46:35;4.37;;;2.80;;
5811;SDS011;2932;52.400;9.558;2022-10-23T04:49:00;4.13;;;2.87;;
5811;SDS011;2932;52.400;9.558;2022-10-23T04:51:26;4.87;;;2.70;;
5811;SDS011;2932;52.400;9.558;2022-10-23T04:53:51;6.20;;;2.93;;
5811;SDS011;2932;52.400;9.558;2022-10-23T04:56:17;5.67;;;3.07;;
5811;SDS011;2932;52.400;9.558;2022-10-23T04:58:42;7.90;;;2.80;;
5811;SDS011;2932;52.400;9.558;2022-10-23T05:01:08;5.23;;;2.90;;
5811;SDS011;2932;52.400;9.558;2022-10-23T05:03:37;5.03;;;2.80;;
5811;SDS011;2932;52.400;9.558;2022-10-23T05:06:03;7.33;;;3.23;;
5811;SDS011;2932;52.400;9.558;2022-10-23T05:08:28;8.53;;;4.07;;
5811;SDS011;2932;52.400;9.558;2022-10-23T05:10:54;4.77;;;2.77;;
5811;SDS011;2932;52.400;9.558;2022-10-23T05:13:19;9.47;;;3.27;;
5811;SDS011;2932;52.400;9.558;2022-10-23T05:15:56;8.37;;;3.30;;
5811;SDS011;2932;52.400;9.558;2022-10-23T05:18:24;7.73;;;2.90;;
5811;SDS011;2932;52.400;9.558;2022-10-23T05:21:02;5.30;;;3.57;;
5811;SDS011;2932;52.400;9.558;2022-10-23T05:23:39;4.40;;;2.83;;
5811;SDS011;2932;52.400;9.558;2022-10-23T05:26:06;7.47;;;3.23;;
5811;SDS011;2932;52.400;9.558;2022-10-23T05:28:32;8.33;;;3.07;;
5811;SDS011;2932;52.400;9.558;2022-10-23T05:30:59;5.53;;;3.10;;
5811;SDS011;2932;52.400;9.558;2022-10-23T05:33:26;6.40;;;3.00;;
5811;SDS011;2932;52.400;9.558;2022-10-23T05:35:53;6.43;;;2.67;;
5811;SDS011;2932;52.400;9.558;2022-10-23T05:38:19;4.40;;;2.80;;
5811;SDS011;2932;52.400;9.558;2022-10-23T05:40:45;3.93;;;2.70;;
5811;SDS011;2932;52.400;9.558;2022-10-23T05:43:10;5.37;;;3.00;;
5811;SDS011;2932;52.400;9.558;2022-10-23T05:45:36;6.50;;;2.97;;
5811;SDS011;2932;52.400;9.558;2022-10-23T05:48:01;5.77;;;3.30;;
5811;SDS011;2932;52.400;9.558;2022-10-23T05:50:26;5.17;;;3.20;;
5811;SDS011;2932;52.400;9.558;2022-10-23T05:52:52;5.13;;;3.23;;
5811;SDS011;2932;52.400;9.558;2022-10-23T05:55:17;5.40;;;2.80;;
5811;SDS011;2932;52.400;9.558;2022-10-23T05:57:42;6.07;;;3.30;;
5811;SDS011;2932;52.400;9.558;2022-10-23T06:00:08;6.03;;;2.90;;
5811;SDS011;2932;52.400;9.558;2022-10-23T06:02:34;4.87;;;3.03;;
5811;SDS011;2932;52.400;9.558;2022-10-23T06:04:59;2.83;;;2.53;;
5811;SDS011;2932;52.400;9.558;2022-10-23T06:07:25;3.93;;;2.80;;
5811;SDS011;2932;52.400;9.558;2022-10-23T06:09:52;9.53;;;3.63;;
5811;SDS011;2932;52.400;9.558;2022-10-23T06:12:19;10.67;;;4.40;;
5811;SDS011;2932;52.400;9.558;2022-10-23T06:14:44;5.83;;;4.33;;
5811;SDS011;2932;52.400;9.558;2022-10-23T06:17:10;10.50;;;5.47;;
5811;SDS011;2932;52.400;9.558;2022-10-23T06:19:35;6.97;;;4.67;;
5811;SDS011;2932;52.400;9.558;2022-10-23T06:22:00;6.43;;;3.80;;
5811;SDS011;2932;52.400;9.558;2022-10-23T06:24:26;5.53;;;3.00;;
5811;SDS011;2932;52.400;9.558;2022-10-23T06:26:51;5.27;;;3.20;;
5811;SDS011;2932;52.400;9.558;2022-10-23T06:29:16;8.03;;;3.40;;
5811;SDS011;2932;52.400;9.558;2022-10-23T06:31:42;10.07;;;4.40;;
5811;SDS011;2932;52.400;9.558;2022-10-23T06:34:08;4.43;;;2.93;;
5811;SDS011;2932;52.400;9.558;2022-10-23T06:36:35;6.10;;;4.40;;
5811;SDS011;2932;52.400;9.558;2022-10-23T06:39:02;8.20;;;4.50;;
5811;SDS011;2932;52.400;9.558;2022-10-23T06:41:27;6.40;;;3.60;;
5811;SDS011;2932;52.400;9.558;2022-10-23T06:43:53;6.07;;;3.10;;
5811;SDS011;2932;52.400;9.558;2022-10-23T06:46:18;5.67;;;3.73;;
5811;SDS011;2932;52.400;9.558;2022-10-23T06:48:44;7.80;;;3.53;;
5811;SDS011;2932;52.400;9.558;2022-10-23T06:51:10;10.03;;;3.90;;
5811;SDS011;2932;52.400;9.558;2022-10-23T06:53:37;6.97;;;2.77;;
5811;SDS011;2932;52.400;9.558;2022-10-23T06:56:03;5.03;;;2.47;;
5811;SDS011;2932;52.400;9.558;2022-10-23T06:58:30;7.60;;;2.60;;
5811;SDS011;2932;52.400;9.558;2022-10-23T07:01:00;3.90;;;2.40;;
5811;SDS011;2932;52.400;9.558;2022-10-23T07:03:27;7.13;;;2.53;;
5811;SDS011;2932;52.400;9.558;2022-10-23T07:05:52;4.10;;;2.30;;
5811;SDS011;2932;52.400;9.558;2022-10-23T07:08:18;5.20;;;2.33;;
5811;SDS011;2932;52.400;9.558;2022-10-23T07:10:43;5.10;;;2.47;;
5811;SDS011;2932;52.400;9.558;2022-10-23T07:13:09;10.60;;;3.07;;
5811;SDS011;2932;52.400;9.558;2022-10-23T07:15:35;7.63;;;2.40;;
5811;SDS011;2932;52.400;9.558;2022-10-23T07:18:01;3.40;;;2.10;;
5811;SDS011;2932;52.400;9.558;2022-10-23T07:20:27;4.10;;;1.97;;
5811;SDS011;2932;52.400;9.558;2022-10-23T07:22:53;3.77;;;2.27;;
5811;SDS011;2932;52.400;9.558;2022-10-23T07:25:20;5.63;;;2.50;;
5811;SDS011;2932;52.400;9.558;2022-10-23T07:27:49;4.60;;;2.00;;
5811;SDS011;2932;52.400;9.558;2022-10-23T07:30:15;3.63;;;2.20;;
5811;SDS011;2932;52.400;9.558;2022-10-23T07:32:41;4.43;;;2.13;;
5811;SDS011;2932;52.400;9.558;2022-10-23T07:35:08;5.60;;;2.23;;
5811;SDS011;2932;52.400;9.558;2022-10-23T07:37:34;6.00;;;2.13;;
5811;SDS011;2932;52.400;9.558;2022-10-23T07:40:00;4.13;;;2.43;;
5811;SDS011;2932;52.400;9.558;2022-10-23T07:42:25;4.63;;;2.07;;
5811;SDS011;2932;52.400;9.558;2022-10-23T07:44:50;6.47;;;3.80;;
5811;SDS011;2932;52.400;9.558;2022-10-23T07:47:16;6.43;;;2.33;;
5811;SDS011;2932;52.400;9.558;2022-10-23T07:49:41;3.47;;;2.37;;
5811;SDS011;2932;52.400;9.558;2022-10-23T07:52:07;8.83;;;2.57;;
5811;SDS011;2932;52.400;9.558;2022-10-23T07:54:32;3.63;;;2.27;;
5811;SDS011;2932;52.400;9.558;2022-10-23T07:56:58;4.23;;;2.30;;
5811;SDS011;2932;52.400;9.558;2022-10-23T07:59:23;4.60;;;2.17;;
5811;SDS011;2932;52.400;9.558;2022-10-23T08:01:49;6.57;;;2.30;;
5811;SDS011;2932;52.400;9.558;2022-10-23T08:04:15;6.70;;;2.47;;
5811;SDS011;2932;52.400;9.558;2022-10-23T08:06:40;5.93;;;2.33;;
5811;SDS011;2932;52.400;9.558;2022-10-23T08:09:06;4.77;;;2.23;;
5811;SDS011;2932;52.400;9.558;2022-10-23T08:11:31;3.43;;;2.60;;
5811;SDS011;2932;52.400;9.558;2022-10-23T08:13:59;5.17;;;2.80;;
5811;SDS011;2932;52.400;9.558;2022-10-23T08:16:28;11.53;;;5.30;;
5811;SDS011;2932;52.400;9.558;2022-10-23T08:18:53;3.43;;;3.07;;
5811;SDS011;2932;52.400;9.558;2022-10-23T08:21:19;2.80;;;1.90;;
5811;SDS011;2932;52.400;9.558;2022-10-23T08:23:44;6.17;;;2.40;;
5811;SDS011;2932;52.400;9.558;2022-10-23T08:26:10;5.70;;;2.00;;
5811;SDS011;2932;52.400;9.558;2022-10-23T08:28:35;5.70;;;2.10;;
5811;SDS011;2932;52.400;9.558;2022-10-23T08:31:11;3.57;;;2.23;;
5811;SDS011;2932;52.400;9.558;2022-10-23T08:33:40;4.97;;;2.63;;
5811;SDS011;2932;52.400;9.558;2022-10-23T08:36:23;5.13;;;1.90;;
5811;SDS011;2932;52.400;9.558;2022-10-23T08:38:52;4.80;;;1.83;;
5811;SDS011;2932;52.400;9.558;2022-10-23T08:41:27;4.70;;;2.07;;
5811;SDS011;2932;52.400;9.558;2022-10-23T08:44:17;5.13;;;1.73;;
5811;SDS011;2932;52.400;9.558;2022-10-23T08:46:45;4.43;;;2.00;;
5811;SDS011;2932;52.400;9.558;2022-10-23T08:51:47;4.20;;;1.93;;
5811;SDS011;2932;52.400;9.558;2022-10-23T08:54:18;7.40;;;2.00;;
5811;SDS011;2932;52.400;9.558;2022-10-23T08:56:49;3.20;;;1.43;;
5811;SDS011;2932;52.400;9.558;2022-10-23T08:59:27;3.63;;;1.80;;
5811;SDS011;2932;52.400;9.558;2022-10-23T09:04:49;7.20;;;1.95;;
5811;SDS011;2932;52.400;9.558;2022-10-23T09:10:09;3.87;;;2.10;;
5811;SDS011;2932;52.400;9.558;2022-10-23T09:14:04;4.43;;;1.70;;
5811;SDS011;2932;52.400;9.558;2022-10-23T09:18:41;2.20;;;1.40;;
5811;SDS011;2932;52.400;9.558;2022-10-23T09:21:08;5.63;;;1.48;;
5811;SDS011;2932;52.400;9.558;2022-10-23T09:23:34;5.80;;;1.85;;
5811;SDS011;2932;52.400;9.558;2022-10-23T09:26:00;4.10;;;1.30;;
5811;SDS011;2932;52.400;9.558;2022-10-23T09:28:28;4.68;;;1.45;;
5811;SDS011;2932;52.400;9.558;2022-10-23T09:31:08;3.15;;;1.40;;
5811;SDS011;2932;52.400;9.558;2022-10-23T09:33:35;6.13;;;1.77;;
5811;SDS011;2932;52.400;9.558;2022-10-23T09:38:46;4.40;;;1.45;;
5811;SDS011;2932;52.400;9.558;2022-10-23T09:43:45;3.17;;;1.40;;
5811;SDS011;2932;52.400;9.558;2022-10-23T09:46:11;4.65;;;1.60;;
5811;SDS011;2932;52.400;9.558;2022-10-23T09:48:38;4.65;;;1.52;;
5811;SDS011;2932;52.400;9.558;2022-10-23T09:51:16;4.03;;;1.50;;
5811;SDS011;2932;52.400;9.558;2022-10-23T10:01:47;4.50;;;1.98;;
5811;SDS011;2932;52.400;9.558;2022-10-23T10:04:15;6.60;;;1.55;;
5811;SDS011;2932;52.400;9.558;2022-10-23T10:06:41;3.55;;;1.40;;
5811;SDS011;2932;52.400;9.558;2022-10-23T10:09:09;4.75;;;1.52;;
5811;SDS011;2932;52.400;9.558;2022-10-23T10:11:47;5.68;;;1.85;;
5811;SDS011;2932;52.400;9.558;2022-10-23T10:17:22;5.53;;;1.60;;
5811;SDS011;2932;52.400;9.558;2022-10-23T10:22:46;3.20;;;1.20;;
5811;SDS011;2932;52.400;9.558;2022-10-23T10:36:44;6.97;;;1.25;;
5811;SDS011;2932;52.400;9.558;2022-10-23T10:39:25;3.15;;;1.27;;
5811;SDS011;2932;52.400;9.558;2022-10-23T10:50:35;1.33;;;0.93;;
5811;SDS011;2932;52.400;9.558;2022-10-23T10:53:13;2.35;;;1.40;;
5811;SDS011;2932;52.400;9.558;2022-10-23T10:55:42;2.53;;;1.08;;
5811;SDS011;2932;52.400;9.558;2022-10-23T11:01:02;2.97;;;1.10;;
5811;SDS011;2932;52.400;9.558;2022-10-23T11:03:38;2.58;;;1.23;;
5811;SDS011;2932;52.400;9.558;2022-10-23T11:06:14;4.75;;;1.38;;
5811;SDS011;2932;52.400;9.558;2022-10-23T11:08:42;4.03;;;1.30;;
5811;SDS011;2932;52.400;9.558;2022-10-23T11:11:11;5.55;;;1.33;;
5811;SDS011;2932;52.400;9.558;2022-10-23T11:13:42;1.90;;;1.00;;
5811;SDS011;2932;52.400;9.558;2022-10-23T11:16:19;2.90;;;0.90;;
5811;SDS011;2932;52.400;9.558;2022-10-23T11:19:00;1.58;;;1.10;;
5811;SDS011;2932;52.400;9.558;2022-10-23T11:21:41;3.35;;;1.00;;
5811;SDS011;2932;52.400;9.558;2022-10-23T11:24:14;2.83;;;1.08;;
5811;SDS011;2932;52.400;9.558;2022-10-23T11:27:04;3.95;;;1.20;;
5811;SDS011;2932;52.400;9.558;2022-10-23T11:38:17;3.15;;;1.30;;
5811;SDS011;2932;52.400;9.558;2022-10-23T11:40:49;4.20;;;1.38;;
5811;SDS011;2932;52.400;9.558;2022-10-23T11:43:27;5.50;;;1.60;;
5811;SDS011;2932;52.400;9.558;2022-10-23T11:46:32;2.58;;;1.17;;
5811;SDS011;2932;52.400;9.558;2022-10-23T11:48:56;1.85;;;1.20;;
5811;SDS011;2932;52.400;9.558;2022-10-23T11:56:50;1.75;;;1.20;;
5811;SDS011;2932;52.400;9.558;2022-10-23T12:01:47;3.80;;;1.20;;
5811;SDS011;2932;52.400;9.558;2022-10-23T12:04:18;2.67;;;1.20;;
5811;SDS011;2932;52.400;9.558;2022-10-23T12:06:54;2.60;;;1.10;;
5811;SDS011;2932;52.400;9.558;2022-10-23T12:12:00;2.90;;;1.00;;
5811;SDS011;2932;52.400;9.558;2022-10-23T12:14:27;2.80;;;1.00;;
5811;SDS011;2932;52.400;9.558;2022-10-23T12:16:57;2.38;;;1.00;;
5811;SDS011;2932;52.400;9.558;2022-10-23T12:19:24;4.40;;;1.10;;
5811;SDS011;2932;52.400;9.558;2022-10-23T12:21:52;4.43;;;1.08;;
5811;SDS011;2932;52.400;9.558;2022-10-23T12:27:36;6.35;;;1.00;;
5811;SDS011;2932;52.400;9.558;2022-10-23T12:40:26;1.88;;;1.00;;
5811;SDS011;2932;52.400;9.558;2022-10-23T12:42:55;5.68;;;1.13;;
5811;SDS011;2932;52.400;9.558;2022-10-23T12:45:31;4.22;;;1.00;;
5811;SDS011;2932;52.400;9.558;2022-10-23T12:48:00;2.42;;;0.77;;
5811;SDS011;2932;52.400;9.558;2022-10-23T12:50:27;2.17;;;1.00;;
5811;SDS011;2932;52.400;9.558;2022-10-23T12:52:54;1.75;;;1.02;;
5811;SDS011;2932;52.400;9.558;2022-10-23T12:58:25;3.83;;;1.25;;
5811;SDS011;2932;52.400;9.558;2022-10-23T13:00:55;2.10;;;1.15;;
5811;SDS011;2932;52.400;9.558;2022-10-23T13:03:22;1.55;;;1.08;;
5811;SDS011;2932;52.400;9.558;2022-10-23T13:05:50;4.18;;;1.40;;
5811;SDS011;2932;52.400;9.558;2022-10-23T13:08:18;4.10;;;1.27;;
5811;SDS011;2932;52.400;9.558;2022-10-23T13:10:45;2.47;;;1.30;;
5811;SDS011;2932;52.400;9.558;2022-10-23T13:13:12;2.22;;;1.20;;
5811;SDS011;2932;52.400;9.558;2022-10-23T13:15:42;2.65;;;1.20;;
5811;SDS011;2932;52.400;9.558;2022-10-23T13:18:09;4.10;;;1.40;;
5811;SDS011;2932;52.400;9.558;2022-10-23T13:20:40;5.30;;;1.42;;
5811;SDS011;2932;52.400;9.558;2022-10-23T13:25:42;3.58;;;1.20;;
5811;SDS011;2932;52.400;9.558;2022-10-23T13:28:26;3.25;;;1.02;;
5811;SDS011;2932;52.400;9.558;2022-10-23T13:30:56;4.30;;;1.10;;
5811;SDS011;2932;52.400;9.558;2022-10-23T13:33:48;2.50;;;1.13;;
5811;SDS011;2932;52.400;9.558;2022-10-23T13:36:35;2.50;;;1.08;;
5811;SDS011;2932;52.400;9.558;2022-10-23T13:41:40;3.42;;;1.08;;
5811;SDS011;2932;52.400;9.558;2022-10-23T13:44:11;2.85;;;1.00;;
5811;SDS011;2932;52.400;9.558;2022-10-23T13:46:38;1.15;;;0.95;;
5811;SDS011;2932;52.400;9.558;2022-10-23T13:49:04;2.33;;;0.90;;
5811;SDS011;2932;52.400;9.558;2022-10-23T13:51:31;1.80;;;1.00;;
5811;SDS011;2932;52.400;9.558;2022-10-23T13:54:00;4.72;;;1.10;;
5811;SDS011;2932;52.400;9.558;2022-10-23T13:56:26;2.65;;;1.00;;
5811;SDS011;2932;52.400;9.558;2022-10-23T13:58:52;2.22;;;0.90;;
5811;SDS011;2932;52.400;9.558;2022-10-23T14:01:21;1.73;;;1.20;;
5811;SDS011;2932;52.400;9.558;2022-10-23T14:03:50;1.80;;;1.10;;
5811;SDS011;2932;52.400;9.558;2022-10-23T14:06:17;1.42;;;0.90;;
5811;SDS011;2932;52.400;9.558;2022-10-23T14:08:42;1.17;;;1.00;;
5811;SDS011;2932;52.400;9.558;2022-10-23T14:11:09;1.50;;;0.95;;
5811;SDS011;2932;52.400;9.558;2022-10-23T14:13:36;3.25;;;1.10;;
5811;SDS011;2932;52.400;9.558;2022-10-23T14:16:01;2.33;;;1.08;;
5811;SDS011;2932;52.400;9.558;2022-10-23T14:18:27;1.30;;;1.17;;
5811;SDS011;2932;52.400;9.558;2022-10-23T14:20:52;2.67;;;1.00;;
5811;SDS011;2932;52.400;9.558;2022-10-23T14:23:17;1.98;;;1.10;;
5811;SDS011;2932;52.400;9.558;2022-10-23T14:25:43;2.50;;;1.15;;
5811;SDS011;2932;52.400;9.558;2022-10-23T14:28:08;2.78;;;1.00;;
5811;SDS011;2932;52.400;9.558;2022-10-23T14:30:36;2.17;;;1.02;;
5811;SDS011;2932;52.400;9.558;2022-10-23T14:33:02;1.27;;;1.05;;
5811;SDS011;2932;52.400;9.558;2022-10-23T14:35:28;2.05;;;0.90;;
5811;SDS011;2932;52.400;9.558;2022-10-23T14:37:53;4.03;;;1.00;;
5811;SDS011;2932;52.400;9.558;2022-10-23T14:40:19;1.65;;;0.98;;
5811;SDS011;2932;52.400;9.558;2022-10-23T14:42:44;1.20;;;1.10;;
5811;SDS011;2932;52.400;9.558;2022-10-23T14:45:09;4.07;;;1.25;;
5811;SDS011;2932;52.400;9.558;2022-10-23T14:47:35;4.18;;;1.23;;
5811;SDS011;2932;52.400;9.558;2022-10-23T14:50:00;1.35;;;0.90;;
5811;SDS011;2932;52.400;9.558;2022-10-23T14:52:25;6.57;;;1.25;;
5811;SDS011;2932;52.400;9.558;2022-10-23T14:54:51;1.98;;;1.08;;
5811;SDS011;2932;52.400;9.558;2022-10-23T14:57:17;4.55;;;1.00;;
5811;SDS011;2932;52.400;9.558;2022-10-23T14:59:45;2.60;;;0.93;;
5811;SDS011;2932;52.400;9.558;2022-10-23T15:02:11;2.40;;;1.08;;
5811;SDS011;2932;52.400;9.558;2022-10-23T15:04:36;1.65;;;1.20;;
5811;SDS011;2932;52.400;9.558;2022-10-23T15:07:02;1.92;;;0.93;;
5811;SDS011;2932;52.400;9.558;2022-10-23T15:09:28;2.45;;;1.17;;
5811;SDS011;2932;52.400;9.558;2022-10-23T15:11:53;1.25;;;0.90;;
5811;SDS011;2932;52.400;9.558;2022-10-23T15:14:19;1.33;;;1.20;;
5811;SDS011;2932;52.400;9.558;2022-10-23T15:16:44;10.32;;;1.42;;
5811;SDS011;2932;52.400;9.558;2022-10-23T15:19:10;5.47;;;1.38;;
5811;SDS011;2932;52.400;9.558;2022-10-23T15:21:38;2.10;;;1.10;;
5811;SDS011;2932;52.400;9.558;2022-10-23T15:24:03;1.92;;;1.05;;
5811;SDS011;2932;52.400;9.558;2022-10-23T15:26:29;1.23;;;1.10;;
5811;SDS011;2932;52.400;9.558;2022-10-23T15:28:57;4.10;;;1.15;;
5811;SDS011;2932;52.400;9.558;2022-10-23T15:34:11;9.65;;;3.75;;
5811;SDS011;2932;52.400;9.558;2022-10-23T15:36:40;15.77;;;6.28;;
5811;SDS011;2932;52.400;9.558;2022-10-23T15:39:07;2.80;;;1.60;;
5811;SDS011;2932;52.400;9.558;2022-10-23T15:41:35;2.83;;;1.42;;
5811;SDS011;2932;52.400;9.558;2022-10-23T15:44:02;2.60;;;1.17;;
5811;SDS011;2932;52.400;9.558;2022-10-23T15:46:29;1.70;;;1.33;;
5811;SDS011;2932;52.400;9.558;2022-10-23T15:48:54;2.60;;;0.98;;
5811;SDS011;2932;52.400;9.558;2022-10-23T15:51:20;3.35;;;1.15;;
5811;SDS011;2932;52.400;9.558;2022-10-23T15:53:45;5.75;;;1.25;;
5811;SDS011;2932;52.400;9.558;2022-10-23T15:56:11;6.88;;;1.33;;
5811;SDS011;2932;52.400;9.558;2022-10-23T15:58:36;3.30;;;1.30;;
5811;SDS011;2932;52.400;9.558;2022-10-23T16:01:02;2.55;;;1.55;;
5811;SDS011;2932;52.400;9.558;2022-10-23T16:03:31;1.40;;;1.30;;
5811;SDS011;2932;52.400;9.558;2022-10-23T16:05:57;5.13;;;3.03;;
5811;SDS011;2932;52.400;9.558;2022-10-23T16:08:23;5.22;;;4.25;;
5811;SDS011;2932;52.400;9.558;2022-10-23T16:10:50;4.20;;;3.35;;
5811;SDS011;2932;52.400;9.558;2022-10-23T16:13:15;5.65;;;2.90;;
5811;SDS011;2932;52.400;9.558;2022-10-23T16:15:41;3.10;;;1.90;;
5811;SDS011;2932;52.400;9.558;2022-10-23T16:18:06;4.82;;;2.72;;
5811;SDS011;2932;52.400;9.558;2022-10-23T16:20:32;4.05;;;2.70;;
5811;SDS011;2932;52.400;9.558;2022-10-23T16:22:58;4.70;;;2.45;;
5811;SDS011;2932;52.400;9.558;2022-10-23T16:25:23;4.80;;;2.00;;
5811;SDS011;2932;52.400;9.558;2022-10-23T16:27:49;5.72;;;3.20;;
5811;SDS011;2932;52.400;9.558;2022-10-23T16:30:14;3.53;;;2.97;;
5811;SDS011;2932;52.400;9.558;2022-10-23T16:32:40;3.35;;;2.22;;
5811;SDS011;2932;52.400;9.558;2022-10-23T16:35:05;5.75;;;1.75;;
5811;SDS011;2932;52.400;9.558;2022-10-23T16:37:31;2.92;;;2.05;;
5811;SDS011;2932;52.400;9.558;2022-10-23T16:39:57;3.22;;;1.80;;
5811;SDS011;2932;52.400;9.558;2022-10-23T16:42:23;2.88;;;2.08;;
5811;SDS011;2932;52.400;9.558;2022-10-23T16:44:49;2.20;;;2.00;;
5811;SDS011;2932;52.400;9.558;2022-10-23T16:47:14;3.95;;;1.80;;
5811;SDS011;2932;52.400;9.558;2022-10-23T16:49:40;4.35;;;1.88;;
5811;SDS011;2932;52.400;9.558;2022-10-23T16:52:05;4.20;;;2.25;;
5811;SDS011;2932;52.400;9.558;2022-10-23T16:54:30;1.98;;;1.60;;
5811;SDS011;2932;52.400;9.558;2022-10-23T16:56:56;4.25;;;1.95;;
5811;SDS011;2932;52.400;9.558;2022-10-23T16:59:22;5.68;;;1.65;;
5811;SDS011;2932;52.400;9.558;2022-10-23T17:01:48;4.25;;;1.65;;
5811;SDS011;2932;52.400;9.558;2022-10-23T17:04:13;2.17;;;1.65;;
5811;SDS011;2932;52.400;9.558;2022-10-23T17:06:38;3.45;;;1.60;;
5811;SDS011;2932;52.400;9.558;2022-10-23T17:09:04;7.13;;;2.20;;
5811;SDS011;2932;52.400;9.558;2022-10-23T17:11:30;3.97;;;1.50;;
5811;SDS011;2932;52.400;9.558;2022-10-23T17:13:59;1.40;;;1.30;;
5811;SDS011;2932;52.400;9.558;2022-10-23T17:16:29;1.65;;;1.20;;
5811;SDS011;2932;52.400;9.558;2022-10-23T17:19:00;3.92;;;1.48;;
5811;SDS011;2932;52.400;9.558;2022-10-23T17:21:26;2.95;;;1.20;;
5811;SDS011;2932;52.400;9.558;2022-10-23T17:23:56;3.05;;;1.20;;
5811;SDS011;2932;52.400;9.558;2022-10-23T17:26:22;4.63;;;1.48;;
5811;SDS011;2932;52.400;9.558;2022-10-23T17:28:47;4.10;;;1.52;;
5811;SDS011;2932;52.400;9.558;2022-10-23T17:33:43;1.98;;;1.40;;
5811;SDS011;2932;52.400;9.558;2022-10-23T17:36:09;4.45;;;1.73;;
5811;SDS011;2932;52.400;9.558;2022-10-23T17:38:37;4.60;;;1.88;;
5811;SDS011;2932;52.400;9.558;2022-10-23T17:41:03;2.90;;;1.77;;